Latest Weather Observations for Melbourne Airport

IDV60901

Issued at 12:01 pm EDT Wednesday 16 January 2019 (issued every 10 minutes, with the page automatically refreshed every 10 minutes)

About weather observations | Map of Melbourne area stations | Latest observations for Melbourne area | Other Formats
Station Details ID: 086282 Name: MELBOURNE AIRPORT Lat: -37.67 Lon: 144.83 Height: 113.4 m
Data from the previous 72 hours. | See also: Recent months at Melbourne Airport
Date/Time
EDT
Temp
°C
App
Temp
°C
Dew
Point
°C
Rel
Hum
%
Delta-T
°C
Wind Press
QNH
hPa
Press
MSL
hPa
Rain since
9am
mm
Dir  Spd
km/h
Gust
km/h
Spd
kts
Gust
kts
16/11:30am 27.5 28.4 16.0 49 7.1 S 6 13 3 7 1010.7 1010.3 0.0
16/11:00am 26.2 26.9 16.0 53 6.3 ENE 7 13 4 7 1010.9 1010.5 0.0
16/10:30am 24.8 26.3 16.7 60 5.0 NE 4 9 2 5 1011.1 1010.7 0.0
16/10:00am 23.1 24.2 15.7 63 4.5 NNE 4 9 2 5 1011.2 1010.8 0.0
16/09:30am 21.6 24.0 16.9 74 2.9 CALM 0 6 0 3 1011.7 1011.3 0.0
16/09:00am 20.4 22.1 17.1 81 2.0 SW 4 7 2 4 1011.8 1011.4 0.0
16/08:30am 20.0 21.3 17.2 84 1.7 SSW 6 7 3 4 1011.9 1011.5 0.0
16/08:16am 19.8 21.8 17.0 84 1.7 SSW 2 9 1 5 1011.7 1011.3 0.0
16/08:00am 19.5 20.8 17.0 85 1.5 SW 6 9 3 5 1011.6 1011.2 0.0
16/07:30am 18.9 20.0 17.1 89 1.1 WNW 7 9 4 5 1011.5 1011.1 0.0
16/07:00am 18.2 18.8 16.9 92 0.8 W 9 13 5 7 1011.0 1010.6 0.0
16/06:30am 17.4 17.3 15.9 91 0.9 W 11 13 6 7 1010.9 1010.5 0.0
16/06:00am 16.7 16.3 14.1 85 1.5 W 9 11 5 6 1010.8 1010.4 0.0
16/05:57am 16.7 16.3 14.1 85 1.5 W 9 11 5 6 1010.8 1010.4 0.0
16/05:30am 17.1 17.1 14.1 82 1.7 WSW 7 9 4 5 1010.6 1010.2 0.0
16/05:00am 16.9 16.6 13.4 80 2.0 W 7 9 4 5 1010.5 1010.1 0.0
16/04:30am 18.0 17.4 13.6 75 2.5 NNW 9 11 5 6 1010.4 1010.0 0.0
16/04:00am 17.8 17.2 13.6 76 2.4 N 9 13 5 7 1010.2 1009.8 0.0
16/03:30am 18.8 18.2 13.6 72 3.0 WNW 9 11 5 6 1010.2 1009.8 0.0
16/03:00am 19.2 18.5 14.4 74 2.8 WSW 11 13 6 7 1011.1 1010.7 0.0
16/02:30am 20.3 19.3 14.7 70 3.3 SSW 13 19 7 10 1010.7 1010.3 0.0
16/02:00am 19.5 16.7 11.4 59 4.5 SSW 17 22 9 12 1010.1 1009.7 0.0
16/01:30am 22.7 19.5 8.5 40 7.6 N 15 19 8 10 1009.3 1008.9 0.0
16/01:00am 24.2 19.5 7.9 35 8.7 N 22 26 12 14 1009.4 1009.0 0.0
16/12:30am 24.4 19.6 8.9 37 8.4 N 24 28 13 15 1009.4 1009.0 0.0
16/12:00am 24.1 19.8 9.5 39 8.0 N 22 26 12 14 1009.4 1009.0 0.0
 
Date/Time
EDT
Temp
°C
App
Temp
°C
Dew
Point
°C
Rel
Hum
%
Delta-T
°C
Wind Press
QNH
hPa
Press
MSL
hPa
Rain since
9am
mm
Dir  Spd
km/h
Gust
km/h
Spd
kts
Gust
kts
15/11:30pm 23.9 20.4 10.2 42 7.6 N 19 22 10 12 1009.6 1009.2 0.0
15/11:00pm 23.8 20.8 10.7 43 7.3 N 17 22 9 12 1009.8 1009.4 0.0
15/10:30pm 24.9 24.1 11.1 42 7.8 N 6 13 3 7 1009.9 1009.5 0.0
15/10:00pm 24.6 22.0 10.7 41 7.8 N 15 19 8 10 1009.8 1009.4 0.0
15/09:30pm 24.8 23.0 11.0 42 7.8 N 11 15 6 8 1009.9 1009.5 0.0
15/09:00pm 24.4 22.2 12.2 46 7.0 N 15 17 8 9 1009.8 1009.4 0.0
15/08:30pm 25.5 24.3 11.5 41 8.0 NNW 9 11 5 6 1010.0 1009.6 0.0
15/08:00pm 27.1 26.4 11.4 37 9.0 NNE 6 13 3 7 1009.8 1009.4 0.0
15/07:30pm 27.3 26.7 11.7 37 9.0 NE 6 11 3 6 1010.1 1009.7 0.0
15/07:00pm 27.7 25.8 9.1 31 10.3 ESE 9 15 5 8 1010.1 1009.7 0.0
15/06:30pm 28.7 24.8 9.4 30 10.8 SSE 20 26 11 14 1010.1 1009.7 0.0
15/06:00pm 30.6 27.8 9.9 27 11.8 S 15 20 8 11 1009.8 1009.4 0.0
15/05:30pm 31.2 28.7 12.3 31 11.2 S 17 20 9 11 1009.6 1009.2 0.0
15/05:00pm 30.9 31.2 16.1 41 9.3 SSW 9 13 5 7 1009.7 1009.3 0.0
15/04:30pm 29.5 29.8 16.0 44 8.4 S 9 15 5 8 1009.1 1008.8 0.0
15/04:00pm 28.9 29.6 17.0 48 7.5 S 9 13 5 7 1009.3 1008.9 0.0
15/03:30pm 28.6 28.8 17.6 51 7.0 S 13 26 7 14 1009.6 1009.2 0.0
15/03:00pm 29.5 27.5 17.4 48 7.7 S 24 33 13 18 1009.4 1009.0 0.0
15/02:54pm 30.1 27.6 17.0 45 8.3 S 26 33 14 18 1009.4 1009.0 0.0
15/02:30pm 35.1 33.5 13.8 27 13.1 S 15 26 8 14 1008.9 1008.6 0.0
15/02:00pm 33.0 29.1 13.4 30 11.9 S 26 32 14 17 1008.7 1008.4 0.0
15/01:30pm 34.7 34.3 19.3 40 10.2 S 20 26 11 14 1008.4 1008.1 0.0
15/01:00pm 36.1 32.6 15.4 29 13.1 SW 28 39 15 21 1008.2 1007.9 0.0
15/12:30pm 37.2 35.7 10.5 20 15.8 SSE 9 22 5 12 1008.3 1008.0 0.0
15/12:00pm 35.2 35.5 14.5 29 12.9 SSE 6 13 3 7 1008.7 1008.4 0.0
15/11:30am 33.0 33.4 16.3 36 10.6 SSE 9 13 5 7 1008.9 1008.6 0.0
15/11:00am 33.3 33.0 16.5 36 10.7 S 13 17 7 9 1009.0 1008.7 0.0
15/10:30am 32.7 32.4 16.5 37 10.3 S 13 17 7 9 1009.1 1008.8 0.0
15/10:00am 33.8 34.8 15.3 33 11.6 NW 4 9 2 5 1009.4 1009.0 0.0
15/09:30am 31.0 31.7 16.0 40 9.4 NNE 7 11 4 6 1009.5 1009.1 0.0
15/09:00am 28.1 28.8 16.2 48 7.4 N 7 15 4 8 1009.5 1009.1 0.0
15/08:30am 25.0 24.6 15.3 55 5.9 N 11 13 6 7 1009.5 1009.1 0.0
15/08:00am 22.6 21.9 15.5 64 4.3 N 13 17 7 9 1009.6 1009.2 0.0
15/07:30am 20.1 17.8 14.7 71 3.2 N 20 26 11 14 1009.5 1009.1 0.0
15/07:00am 18.0 15.8 14.4 79 2.1 N 19 24 10 13 1009.5 1009.1 0.0
15/06:30am 16.5 14.8 14.6 88 1.1 N 17 19 9 10 1009.7 1009.3 0.0
15/06:00am 16.7 15.6 15.2 91 0.9 N 15 15 8 8 1009.9 1009.5 0.0
15/05:30am 16.6 16.2 15.2 91 0.8 N 11 11 6 6 1009.8 1009.4 0.0
15/05:00am 16.1 16.2 14.5 90 0.9 N 7 9 4 5 1010.0 1009.6 0.0
15/04:30am 16.7 18.4 15.2 91 0.9 CALM 0 0 0 0 1009.9 1009.5 0.0
15/04:00am 17.9 19.0 15.5 86 1.4 NNW 4 9 2 5 1009.8 1009.4 0.0
15/03:30am 17.4 17.8 15.2 87 1.3 WSW 7 9 4 5 1010.2 1009.8 0.0
15/03:00am 17.9 19.3 15.5 86 1.4 N 2 9 1 5 1010.3 1009.9 0.0
15/02:30am 18.8 20.6 15.6 82 1.9 CALM 0 4 0 2 1010.6 1010.2 0.0
15/02:00am 19.7 20.3 15.7 78 2.4 NNE 7 9 4 5 1011.0 1010.6 0.0
15/01:30am 20.0 20.2 15.8 77 2.5 NNE 9 11 5 6 1011.2 1010.8 0.0
15/01:00am 19.6 20.2 15.9 79 2.2 N 7 9 4 5 1011.3 1010.9 0.0
15/12:30am 20.8 22.7 15.8 73 3.0 CALM 0 0 0 0 1011.4 1011.0 0.0
15/12:00am 20.9 21.5 15.9 73 3.0 W 7 13 4 7 1011.5 1011.1 0.0
 
Date/Time
EDT
Temp
°C
App
Temp
°C
Dew
Point
°C
Rel
Hum
%
Delta-T
°C
Wind Press
QNH
hPa
Press
MSL
hPa
Rain since
9am
mm
Dir  Spd
km/h
Gust
km/h
Spd
kts
Gust
kts
14/11:30pm 20.6 20.2 16.3 76 2.6 W 13 15 7 8 1011.7 1011.3 0.0
14/11:00pm 20.6 19.9 16.3 76 2.6 W 15 17 8 9 1012.0 1011.6 0.0
14/10:30pm 21.3 21.4 16.5 74 2.9 W 11 13 6 7 1012.2 1011.8 0.0
14/10:00pm 21.9 22.4 16.5 71 3.3 WSW 9 11 5 6 1012.3 1011.9 0.0
14/09:30pm 23.2 22.5 16.5 66 4.1 SW 15 17 8 9 1012.4 1012.0 0.0
14/09:00pm 23.5 23.4 16.9 66 4.1 SSW 13 17 7 9 1012.0 1011.6 0.0
14/08:30pm 25.1 25.1 17.1 61 5.0 S 13 19 7 10 1011.7 1011.3 0.0
14/08:00pm 26.3 25.0 16.8 56 5.9 SSW 19 24 10 13 1011.1 1010.7 0.0
14/07:30pm 27.3 25.4 15.8 49 7.1 S 20 26 11 14 1010.7 1010.3 0.0
14/07:00pm 27.8 25.3 16.2 49 7.2 SSE 24 32 13 17 1010.5 1010.1 0.0
14/06:30pm 28.8 25.7 15.7 45 8.1 SSE 26 33 14 18 1010.2 1009.8 0.0
14/06:00pm 29.0 25.0 16.2 46 8.0 SSE 32 43 17 23 1010.0 1009.6 0.0
14/05:30pm 31.7 28.8 16.1 39 9.8 S 26 32 14 17 1009.4 1009.0 0.0
14/05:00pm 32.2 29.1 15.6 36 10.4 S 26 33 14 18 1009.4 1009.0 0.0
14/04:30pm 33.4 30.4 15.8 34 11.1 S 26 33 14 18 1009.1 1008.8 0.0
14/04:00pm 34.5 31.5 16.7 34 11.4 SSE 28 33 15 18 1009.1 1008.8 0.0
14/03:30pm 36.8 33.6 15.3 28 13.6 SSE 26 35 14 19 1008.8 1008.5 0.0
14/03:00pm 37.8 37.1 13.1 23 15.2 SSW 9 19 5 10 1008.9 1008.6 0.0
14/02:30pm 36.1 35.1 14.5 27 13.5 S 13 22 7 12 1009.4 1009.0 0.0
14/02:00pm 35.3 33.0 14.6 29 12.9 S 20 26 11 14 1009.6 1009.2 0.0
14/01:30pm 34.4 33.1 15.9 33 11.7 SSE 17 22 9 12 1010.0 1009.6 0.0
14/01:00pm 34.5 32.6 15.8 32 11.8 S 20 28 11 15 1010.4 1010.0 0.0
14/12:30pm 32.8 32.5 16.4 37 10.4 SSE 13 19 7 10 1011.0 1010.6 0.0
14/12:00pm 32.4 31.2 16.0 37 10.3 SSE 17 24 9 13 1011.4 1011.0 0.0
14/11:30am 31.0 30.0 16.6 42 9.1 SSE 17 24 9 13 1011.7 1011.3 0.0
14/11:00am 28.5 28.3 16.7 48 7.4 S 13 17 7 9 1012.1 1011.7 0.0
14/10:30am 26.5 27.1 16.7 55 6.1 ESE 9 15 5 8 1012.4 1012.0 0.0
14/10:00am 24.5 25.0 16.6 61 4.9 E 9 13 5 7 1012.8 1012.4 0.0
14/09:30am 22.8 24.3 16.6 68 3.8 SE 4 9 2 5 1013.3 1012.9 0.0
14/09:00am 21.4 22.3 16.5 73 3.0 SW 7 11 4 6 1013.7 1013.3 0.0
14/08:30am 20.1 20.5 16.3 79 2.3 WSW 9 11 5 6 1014.0 1013.6 0.0
14/08:00am 19.0 18.9 16.0 83 1.8 W 11 13 6 7 1013.9 1013.5 0.0
14/07:30am 18.0 17.4 15.6 86 1.4 WNW 13 17 7 9 1013.7 1013.3 0.0
14/07:00am 17.2 16.9 15.5 90 1.0 WNW 11 13 6 7 1013.4 1013.0 0.0
14/06:30am 17.0 16.6 15.3 90 1.0 WNW 11 15 6 8 1013.1 1012.7 0.0
14/06:00am 16.6 16.9 15.1 91 0.9 NW 7 9 4 5 1012.9 1012.5 0.0
14/05:30am 16.7 16.7 15.3 91 0.8 WNW 9 11 5 6 1012.6 1012.2 0.0
14/05:00am 16.9 17.0 15.4 91 0.9 WNW 9 13 5 7 1012.4 1012.0 0.0
14/04:30am 17.3 17.0 15.4 88 1.1 WNW 11 11 6 6 1012.4 1012.0 0.0
14/04:00am 17.4 16.7 15.4 88 1.2 WNW 13 17 7 9 1012.4 1012.0 0.0
14/03:30am 17.6 16.1 15.2 86 1.4 WNW 17 20 9 11 1012.4 1012.0 0.0
14/03:00am 17.5 15.6 15.3 87 1.3 W 19 22 10 12 1012.8 1012.4 0.0
14/02:30am 17.6 16.1 15.2 86 1.4 W 17 20 9 11 1013.1 1012.7 0.0
14/02:00am 18.0 16.9 15.3 84 1.6 W 15 19 8 10 1013.5 1013.1 0.0
14/01:30am 18.0 16.9 15.3 84 1.6 W 15 19 8 10 1013.9 1013.5 0.0
14/01:00am 18.5 16.6 15.3 81 1.9 W 19 22 10 12 1014.0 1013.6 0.0
14/12:30am 18.8 16.9 15.1 79 2.2 W 19 22 10 12 1014.1 1013.7 0.0
14/12:00am 18.6 17.0 15.0 79 2.1 W 17 19 9 10 1014.1 1013.7 0.0
 
Date/Time
EDT
Temp
°C
App
Temp
°C
Dew
Point
°C
Rel
Hum
%
Delta-T
°C
Wind Press
QNH
hPa
Press
MSL
hPa
Rain since
9am
mm
Dir  Spd
km/h
Gust
km/h
Spd
kts
Gust
kts
13/11:30pm 19.0 18.1 14.9 77 2.4 WSW 13 15 7 8 1014.4 1014.0 0.0
13/11:00pm 20.2 19.3 14.9 71 3.1 WSW 13 15 7 8 1014.5 1014.1 0.0
13/10:30pm 20.5 19.5 14.5 68 3.5 SW 13 17 7 9 1014.7 1014.3 0.0
13/10:00pm 21.3 20.2 14.3 64 4.1 SSW 13 17 7 9 1014.9 1014.6 0.0
13/09:30pm 22.6 20.3 14.1 58 5.0 S 19 26 10 14 1014.8 1014.4 0.0
13/09:00pm 23.7 21.4 14.0 54 5.7 S 19 28 10 15 1015.0 1014.7 0.0
13/08:30pm 24.9 22.2 13.5 49 6.7 S 20 26 11 14 1014.8 1014.4 0.0
13/08:00pm 26.4 22.5 13.3 44 7.7 S 26 32 14 17 1014.8 1014.4 0.0
13/07:30pm 27.6 23.9 12.6 39 8.8 S 24 32 13 17 1014.5 1014.1 0.0
13/07:00pm 28.3 23.6 12.0 36 9.5 S 28 35 15 19 1014.6 1014.2 0.0
13/06:30pm 28.5 23.2 11.3 34 9.9 S 30 37 16 20 1014.7 1014.3 0.0
13/06:00pm 28.6 23.7 12.4 36 9.5 S 30 37 16 20 1014.7 1014.3 0.0
13/05:30pm 28.2 23.6 12.3 37 9.3 S 28 35 15 19 1015.1 1014.8 0.0
13/05:00pm 28.0 22.8 12.9 39 8.9 S 32 41 17 22 1015.6 1015.3 0.0
13/04:30pm 28.0 23.6 12.9 39 8.9 S 28 41 15 22 1016.0 1015.7 0.0
13/04:00pm 27.5 22.9 12.2 38 8.9 S 28 37 15 20 1016.3 1016.0 0.0
13/03:30pm 27.1 22.5 12.3 39 8.6 S 28 37 15 20 1016.7 1016.4 0.0
13/03:00pm 27.6 23.0 12.3 38 8.9 S 28 39 15 21 1016.9 1016.6 0.0
13/02:30pm 26.4 21.6 11.5 39 8.5 S 28 37 15 20 1017.3 1017.0 0.0
13/02:00pm 26.0 21.0 11.0 39 8.5 S 28 35 15 19 1017.7 1017.4 0.0
13/01:30pm 25.3 20.7 9.7 37 8.6 S 24 33 13 18 1018.2 1017.8 0.0
13/01:00pm 24.1 19.7 10.4 42 7.6 S 24 39 13 21 1018.6 1018.2 0.0
13/12:30pm 23.5 19.6 10.7 44 7.1 S 22 35 12 19 1018.8 1018.4 0.0

Latest Capital City Observations: Canberra | Sydney | Melbourne | Brisbane | Adelaide | Perth | Hobart | Darwin

Other Formats:

Comma delimited format used in spreadsheet applications
http://www.bom.gov.au/fwo/IDV60901/IDV60901.94866.axf

JavaScript Object Notation format (JSON) in row-major order
http://www.bom.gov.au/fwo/IDV60901/IDV60901.94866.json